Time;durP1;ratioP1;P1;durP2;ratioP2;P2;SDS_P1;SDS_P2;PMS_P1;PMS_P2;Temp;Humidity;BMP_temperature;BMP_pressure;BME280_temperature;BME280_humidity;BME280_pressure;Samples;Min_cycle;Max_cycle;Signal;HPM_P1;HPM_P2
2023/11/17 00:02:21;;;;;;;12.47;9.07;;;9.60;99.90;;;;;;6136191;23;20956;-88
2023/11/17 00:05:40;;;;;;;12.73;9.27;;;9.60;99.90;;;;;;6154308;23;20418;-87
2023/11/17 00:11:34;;;;;;;15.53;10.73;;;9.50;99.90;;;;;;6154661;23;20486;-86
2023/11/17 00:14:28;;;;;;;16.73;11.20;;;9.50;99.90;;;;;;6138006;23;20454;-87
2023/11/17 00:18:02;;;;;;;;;;;;;;;;;;;;;
2023/11/17 00:20:57;;;;;;;19.80;12.33;;;9.40;99.90;;;;;;6180294;23;20405;-84
2023/11/17 00:23:46;;;;;;;17.70;12.37;;;9.40;99.90;;;;;;6155664;23;20414;-85
2023/11/17 00:26:35;;;;;;;20.60;12.87;;;9.40;99.90;;;;;;6144610;23;20433;-85
2023/11/17 00:29:11;;;;;;;19.73;11.20;;;9.40;99.90;;;;;;6157155;23;20425;-85
2023/11/17 00:32:19;;;;;;;17.97;12.30;;;9.30;99.90;;;;;;6174245;23;20386;-82
2023/11/17 00:38:23;;;;;;;15.50;11.10;;;9.20;99.90;;;;;;6177071;23;20453;-84
2023/11/17 00:41:31;;;;;;;16.37;10.63;;;9.30;99.90;;;;;;6162406;23;20454;-88
2023/11/17 00:44:46;;;;;;;12.87;9.37;;;9.20;99.90;;;;;;6166324;23;20394;-85
2023/11/17 00:47:52;;;;;;;16.40;9.63;;;9.20;99.90;;;;;;6163357;23;20986;-85
2023/11/17 00:54:24;;;;;;;12.43;8.70;;;9.10;99.90;;;;;;6239866;22;20470;-85
2023/11/17 00:57:29;;;;;;;10.77;7.60;;;9.20;99.90;;;;;;6240993;22;20480;-86
2023/11/17 01:00:11;;;;;;;12.47;8.10;;;9.10;99.90;;;;;;6256865;22;20467;-86
2023/11/17 01:03:00;;;;;;;13.53;8.13;;;9.00;99.90;;;;;;6261248;22;20404;-85
2023/11/17 01:06:10;;;;;;;11.33;8.20;;;9.00;99.90;;;;;;6265705;22;20392;-86
2023/11/17 01:09:02;;;;;;;14.87;8.80;;;9.00;99.90;;;;;;6265737;22;20463;-87
2023/11/17 01:12:04;;;;;;;10.97;7.17;;;9.10;99.90;;;;;;6235483;22;20413;-86
2023/11/17 01:15:21;;;;;;;12.70;7.20;;;9.10;99.90;;;;;;6248639;22;20479;-86
2023/11/17 01:18:15;;;;;;;10.37;7.73;;;9.00;99.90;;;;;;6265814;22;20490;-87
2023/11/17 01:20:59;;;;;;;7.90;7.10;;;9.00;99.90;;;;;;6264067;22;20450;-88
2023/11/17 01:23:56;;;;;;;8.43;7.53;;;8.90;99.90;;;;;;6248928;23;21198;-86
2023/11/17 01:26:44;;;;;;;10.27;7.60;;;8.90;99.90;;;;;;6248675;22;20794;-85
2023/11/17 01:29:57;;;;;;;8.60;6.77;;;8.90;99.90;;;;;;6247684;23;20605;-86
2023/11/17 01:33:08;;;;;;;9.53;6.50;;;8.90;99.90;;;;;;6246699;22;20422;-86
2023/11/17 01:36:18;;;;;;;8.43;6.63;;;8.90;99.90;;;;;;6250660;23;20435;-85
2023/11/17 01:39:03;;;;;;;10.90;6.80;;;8.80;99.90;;;;;;6266894;22;20416;-86
2023/11/17 01:41:45;;;;;;;10.97;6.93;;;8.70;99.90;;;;;;6261906;23;20408;-88
2023/11/17 01:47:27;;;;;;;8.13;6.53;;;8.70;99.90;;;;;;6179491;23;20440;-86
2023/11/17 01:50:03;;;;;;;7.53;6.37;;;8.70;99.90;;;;;;6170776;23;20409;-87
2023/11/17 01:52:34;;;;;;;12.50;6.23;;;8.60;99.90;;;;;;6179657;23;20429;-88
2023/11/17 01:55:21;;;;;;;8.53;6.80;;;8.60;99.90;;;;;;6169607;23;20398;-86
2023/11/17 01:58:06;;;;;;;7.53;5.97;;;8.60;99.90;;;;;;6180516;23;20437;-87
2023/11/17 02:01:07;;;;;;;8.70;7.10;;;8.70;99.90;;;;;;6179213;23;20398;-87
2023/11/17 02:03:51;;;;;;;13.00;6.70;;;8.60;99.90;;;;;;6200977;23;20398;-86
2023/11/17 02:06:50;;;;;;;9.27;7.30;;;8.60;99.90;;;;;;6181367;23;20508;-88
2023/11/17 02:09:43;;;;;;;9.60;7.50;;;8.50;99.90;;;;;;6203819;23;20406;-86
2023/11/17 02:12:54;;;;;;;10.00;7.67;;;8.40;99.90;;;;;;6176443;23;20430;-86
2023/11/17 02:15:39;;;;;;;7.87;6.80;;;8.40;99.90;;;;;;6160583;23;20422;-86
2023/11/17 02:18:28;;;;;;;9.80;6.10;;;8.40;99.90;;;;;;6146354;23;20402;-82
2023/11/17 02:24:26;;;;;;;14.90;7.77;;;8.40;99.90;;;;;;6188105;23;20416;-85
2023/11/17 02:27:42;;;;;;;9.57;7.07;;;8.40;99.90;;;;;;6240253;22;20516;-82
2023/11/17 02:30:34;;;;;;;17.60;7.20;;;8.40;99.90;;;;;;6207143;23;20412;-86
2023/11/17 02:33:11;;;;;;;10.20;7.10;;;8.30;99.90;;;;;;6253221;22;20444;-83
2023/11/17 02:35:50;;;;;;;12.30;7.73;;;8.30;99.90;;;;;;6241878;23;20416;-83
2023/11/17 02:38:37;;;;;;;9.50;7.37;;;8.40;99.90;;;;;;6175909;23;21038;-84
2023/11/17 02:41:29;;;;;;;11.37;7.30;;;8.30;99.90;;;;;;6239452;23;20766;-84
2023/11/17 02:44:15;;;;;;;10.00;7.60;;;8.40;99.90;;;;;;6238050;23;20502;-86
2023/11/17 02:50:31;;;;;;;13.10;7.63;;;8.40;99.90;;;;;;6238047;23;20458;-84
2023/11/17 02:53:17;;;;;;;7.83;6.60;;;8.30;99.90;;;;;;6238709;23;20418;-83
2023/11/17 02:55:57;;;;;;;10.43;7.40;;;8.30;99.90;;;;;;6244618;23;20419;-85
2023/11/17 02:58:55;;;;;;;11.43;7.90;;;8.30;99.90;;;;;;6239223;23;20426;-86
2023/11/17 03:05:46;;;;;;;10.30;8.43;;;8.30;99.90;;;;;;6206208;23;20502;-84
2023/11/17 03:08:19;;;;;;;11.43;8.57;;;8.20;99.90;;;;;;6262276;22;20457;-84
2023/11/17 03:11:06;;;;;;;10.33;7.27;;;8.20;99.90;;;;;;6235924;23;20447;-85
2023/11/17 03:13:45;;;;;;;12.80;8.60;;;8.20;99.90;;;;;;6262056;22;20850;-86
2023/11/17 03:16:27;;;;;;;11.97;8.10;;;8.20;99.90;;;;;;6236742;22;20424;-86
2023/11/17 03:22:28;;;;;;;9.40;7.40;;;8.20;99.90;;;;;;6229898;22;20485;-85
2023/11/17 03:25:18;;;;;;;11.47;8.27;;;8.20;99.90;;;;;;6232679;23;20408;-89
2023/11/17 03:27:56;;;;;;;15.60;8.70;;;8.20;99.90;;;;;;6234970;22;20436;-86
2023/11/17 03:30:42;;;;;;;13.20;7.87;;;8.20;99.90;;;;;;6257924;22;20477;-86
2023/11/17 03:33:37;;;;;;;9.47;7.40;;;8.20;99.90;;;;;;6237351;23;20438;-85
2023/11/17 03:36:19;;;;;;;13.70;8.23;;;8.10;99.90;;;;;;6236703;22;20467;-85
2023/11/17 03:39:19;;;;;;;12.93;8.90;;;8.10;99.90;;;;;;6238065;23;20717;-87
2023/11/17 03:42:03;;;;;;;9.70;7.67;;;;;;;;;;6240100;23;20866;-87
2023/11/17 03:45:07;;;;;;;;;;;;;;;;;;;;;
2023/11/17 03:48:01;;;;;;;10.80;7.90;;;;;;;;;;6249437;22;20432;-84
2023/11/17 03:50:36;;;;;;;11.67;8.30;;;;;;;;;;6249709;23;20444;-84
2023/11/17 03:53:16;;;;;;;11.00;7.70;;;;;;;;;;6238719;23;20444;-86
2023/11/17 03:56:04;;;;;;;12.87;8.70;;;;;;;;;;6249238;23;20400;-86
2023/11/17 03:58:42;;;;;;;12.33;8.60;;;;;;;;;;6247762;23;20412;-86
2023/11/17 04:01:13;;;;;;;12.00;8.90;;;;;;;;;;6246685;23;20464;-85
2023/11/17 04:03:58;;;;;;;9.87;8.07;;;;;;;;;;6250601;23;20412;-86
2023/11/17 04:06:54;;;;;;;8.50;6.93;;;;;;;;;;6254851;22;20426;-85
2023/11/17 04:09:48;;;;;;;;;;;;;;;;;;;;;
2023/11/17 04:12:44;;;;;;;7.63;6.83;;;;;;;;;;6254816;22;20412;-87
2023/11/17 04:15:36;;;;;;;13.37;8.70;;;;;;;;;;6251688;23;20521;-85
2023/11/17 04:18:16;;;;;;;9.63;7.80;;;;;;;;;;6248463;22;20490;-87
2023/11/17 04:20:58;;;;;;;14.20;9.97;;;;;;;;;;6244825;23;20415;-87
2023/11/17 04:23:54;;;;;;;11.97;8.60;;;;;;;;;;6228577;23;20400;-85
2023/11/17 04:26:48;;;;;;;12.53;8.10;;;;;;;;;;6241629;22;20504;-87
2023/11/17 04:29:32;;;;;;;21.23;9.40;;;;;;;;;;6245976;22;20924;-86
2023/11/17 04:32:23;;;;;;;16.30;9.90;;;;;;;;;;6235791;23;20409;-88
2023/11/17 04:35:05;;;;;;;17.33;10.10;;;;;;;;;;6238543;23;20460;-87
2023/11/17 04:37:51;;;;;;;15.50;10.60;;;;;;;;;;6215620;22;20736;-87
2023/11/17 04:40:28;;;;;;;15.00;9.60;;;;;;;;;;6241987;23;20438;-89
2023/11/17 04:43:04;;;;;;;14.93;9.53;;;;;;;;;;6247023;23;20412;-87
2023/11/17 04:45:54;;;;;;;15.33;10.20;;;;;;;;;;6245791;23;20411;-86
2023/11/17 04:49:01;;;;;;;13.57;10.17;;;;;;;;;;6247536;23;21074;-88
2023/11/17 04:51:36;;;;;;;14.63;9.03;;;;;;;;;;6247864;23;20534;-87
2023/11/17 04:54:22;;;;;;;12.23;9.07;;;;;;;;;;6246725;23;20470;-85
2023/11/17 04:57:06;;;;;;;16.63;11.17;;;;;;;;;;6246942;22;20455;-87
2023/11/17 05:02:48;;;;;;;16.80;11.20;;;;;;;;;;6159013;23;20415;-85
2023/11/17 05:05:38;;;;;;;20.90;12.70;;;;;;;;;;6247351;23;20416;-87
2023/11/17 05:08:16;;;;;;;19.70;12.77;;;;;;;;;;6260508;22;20443;-87
2023/11/17 05:10:55;;;;;;;21.03;14.30;;;;;;;;;;6264967;23;20403;-86
2023/11/17 05:13:31;;;;;;;23.63;13.37;;;;;;;;;;6257926;22;20427;-84
2023/11/17 05:16:05;;;;;;;22.33;14.10;;;;;;;;;;6248800;22;20436;-84
2023/11/17 05:18:42;;;;;;;16.83;12.60;;;;;;;;;;6255419;22;20892;-85
2023/11/17 05:21:22;;;;;;;16.30;11.90;;;;;;;;;;6250659;23;20411;-86
2023/11/17 05:24:01;;;;;;;17.60;12.67;;;;;;;;;;6246784;23;20387;-86
2023/11/17 05:27:14;;;;;;;22.83;12.57;;;;;;;;;;6241712;22;20435;-86
2023/11/17 05:29:47;;;;;;;18.63;12.53;;;;;;;;;;6241059;23;20423;-86
2023/11/17 05:32:16;;;;;;;19.97;13.67;;;;;;;;;;6241799;23;20423;-86
2023/11/17 05:35:13;;;;;;;19.07;12.17;;;;;;;;;;6242318;23;20444;-85
2023/11/17 05:37:50;;;;;;;21.47;14.57;;;;;;;;;;6242179;22;20458;-87
2023/11/17 05:40:33;;;;;;;20.30;13.60;;;;;;;;;;6242137;23;20419;-86
2023/11/17 05:43:10;;;;;;;19.77;12.93;;;;;;;;;;6240723;23;20475;-87
2023/11/17 05:45:50;;;;;;;18.77;12.47;;;;;;;;;;6240574;23;20415;-86
2023/11/17 05:48:17;;;;;;;20.30;13.47;;;;;;;;;;6239998;22;20427;-87
2023/11/17 05:51:13;;;;;;;;;;;;;;;;;;;;;
2023/11/17 05:53:58;;;;;;;20.37;13.83;;;;;;;;;;6244085;22;20477;-86
2023/11/17 05:56:32;;;;;;;24.17;14.10;;;;;;;;;;6242495;22;20428;-86
2023/11/17 05:59:04;;;;;;;19.93;13.03;;;;;;;;;;6241961;23;20439;-86
2023/11/17 06:01:48;;;;;;;22.73;14.17;;;;;;;;;;6241022;23;20411;-87
2023/11/17 06:04:40;;;;;;;23.57;12.60;;;;;;;;;;6240113;22;20404;-86
2023/11/17 06:07:20;;;;;;;19.03;13.00;;;;;;;;;;6241810;22;20428;-88
2023/11/17 06:09:54;;;;;;;23.93;13.23;;;;;;;;;;6244048;23;20408;-86
2023/11/17 06:12:31;;;;;;;19.80;13.13;;;;;;;;;;6242212;23;20442;-85
2023/11/17 06:15:07;;;;;;;19.57;13.40;;;;;;;;;;6241998;23;20490;-84
2023/11/17 06:17:37;;;;;;;18.30;11.37;;;;;;;;;;6247587;22;20430;-85
2023/11/17 06:20:16;;;;;;;18.00;11.97;;;;;;;;;;6250148;23;20694;-86
2023/11/17 06:23:10;;;;;;;18.47;12.70;;;;;;;;;;6246520;23;20380;-86
2023/11/17 06:25:53;;;;;;;20.60;12.70;;;;;;;;;;6261851;22;20418;-86
2023/11/17 06:28:38;;;;;;;19.73;12.13;;;;;;;;;;6170672;23;20438;-86
2023/11/17 06:31:17;;;;;;;23.90;14.60;;;;;;;;;;6155993;23;20441;-88
2023/11/17 06:34:00;;;;;;;24.00;13.90;;;;;;;;;;6175371;23;20620;-85
2023/11/17 06:36:37;;;;;;;27.40;14.83;;;;;;;;;;6171911;23;20436;-85
2023/11/17 06:39:18;;;;;;;27.13;14.47;;;;;;;;;;6125147;23;20397;-85
2023/11/17 06:41:55;;;;;;;32.33;15.53;;;;;;;;;;6150989;23;20436;-86
2023/11/17 06:44:32;;;;;;;31.67;16.60;;;;;;;;;;6147213;23;20419;-86
2023/11/17 06:47:10;;;;;;;26.00;17.40;;;;;;;;;;6125245;23;20450;-83
2023/11/17 06:49:42;;;;;;;25.70;16.47;;;;;;;;;;6147931;23;20423;-84
2023/11/17 06:52:34;;;;;;;;;;;;;;;;;;;;;
2023/11/17 06:58:08;;;;;;;26.73;15.40;;;;;;;;;;6215161;23;20444;-85
2023/11/17 07:00:49;;;;;;;23.57;15.30;;;;;;;;;;6214913;23;20385;-85
2023/11/17 07:03:21;;;;;;;34.10;17.00;;;;;;;;;;6212626;23;20447;-86
2023/11/17 07:06:29;;;;;;;31.60;15.63;;;;;;;;;;6200073;23;20392;-88
2023/11/17 07:11:52;;;;;;;37.40;17.90;;;;;;;;;;6220513;23;20397;-86
2023/11/17 07:17:26;;;;;;;29.13;17.73;;;;;;;;;;6215343;23;21002;-86
2023/11/17 07:20:09;;;;;;;31.57;16.13;;;;;;;;;;6213846;23;20447;-86
2023/11/17 07:22:55;;;;;;;29.87;16.37;;;;;;;;;;6211822;23;20459;-87
2023/11/17 07:25:29;;;;;;;30.43;16.53;;;;;;;;;;6217147;23;20401;-84
2023/11/17 07:28:17;;;;;;;28.60;16.87;;;;;;;;;;6211280;23;20769;-86
2023/11/17 07:30:51;;;;;;;34.07;19.00;;;;;;;;;;6212623;23;20412;-86
2023/11/17 07:33:25;;;;;;;31.80;19.33;;;;;;;;;;6211998;23;20479;-85
2023/11/17 07:36:02;;;;;;;33.20;18.90;;;;;;;;;;6213647;23;20425;-87
2023/11/17 07:38:56;;;;;;;31.03;18.00;;;;;;;;;;6213173;23;20404;-87
2023/11/17 07:41:58;;;;;;;30.17;15.73;;;;;;;;;;6211574;23;20467;-86
2023/11/17 07:44:36;;;;;;;36.77;18.80;;;;;;;;;;6217610;23;20417;-87
2023/11/17 07:47:04;;;;;;;38.43;19.30;;;;;;;;;;6210863;23;20893;-87
2023/11/17 07:49:49;;;;;;;35.30;17.40;;;;;;;;;;6211151;23;20435;-86
2023/11/17 07:52:59;;;;;;;35.37;19.50;;;;;;;;;;6210105;23;20881;-85
2023/11/17 07:55:51;;;;;;;32.80;18.20;;;;;;;;;;6207676;23;20449;-84
2023/11/17 07:58:53;;;;;;;39.60;20.63;;;;;;;;;;6210194;23;20417;-86
2023/11/17 08:01:44;;;;;;;53.10;23.97;;;;;;;;;;6218396;23;20436;-88
2023/11/17 08:04:22;;;;;;;37.93;22.10;;;;;;;;;;6215152;23;20409;-85
2023/11/17 08:06:56;;;;;;;43.00;21.20;;;;;;;;;;6213787;23;20521;-86
2023/11/17 08:09:35;;;;;;;48.93;21.37;;;;;;;;;;6213669;23;20503;-87
2023/11/17 08:12:09;;;;;;;44.93;23.57;;;;;;;;;;6213642;23;20420;-86
2023/11/17 08:14:43;;;;;;;43.47;21.03;;;;;;;;;;6210953;23;20437;-86
2023/11/17 08:17:17;;;;;;;39.43;22.60;;;;;;;;;;6213370;23;20440;-87
2023/11/17 08:19:54;;;;;;;41.60;22.23;;;;;;;;;;6214010;23;20416;-87
2023/11/17 08:22:44;;;;;;;37.70;21.37;;;;;;;;;;6193832;23;20514;-85
2023/11/17 08:25:26;;;;;;;37.83;22.80;;;;;;;;;;6220262;23;20397;-88
2023/11/17 08:28:11;;;;;;;37.73;21.13;;;;;;;;;;6231485;23;20428;-86
2023/11/17 08:33:46;;;;;;;45.50;20.53;;;;;;;;;;6225996;23;20408;-87
2023/11/17 08:36:23;;;;;;;43.50;20.97;;;;;;;;;;6223218;23;20702;-88
2023/11/17 08:39:08;;;;;;;40.60;21.90;;;;;;;;;;6229883;23;20401;-86
2023/11/17 08:42:10;;;;;;;38.40;20.97;;;;;;;;;;6120977;23;20400;-87
2023/11/17 08:44:39;;;;;;;35.37;19.90;;;;;;;;;;6143427;23;20486;-88
2023/11/17 08:47:30;;;;;;;36.77;20.53;;;;;;;;;;6122663;23;20587;-86
2023/11/17 08:50:12;;;;;;;35.67;19.90;;;;;;;;;;6106925;23;20443;-85
2023/11/17 08:52:57;;;;;;;42.07;20.47;;;;;;;;;;6102469;23;20470;-86
2023/11/17 08:55:50;;;;;;;35.80;19.70;;;;;;;;;;6101602;23;20462;-86
2023/11/17 08:58:26;;;;;;;37.20;21.53;;;;;;;;;;6101874;23;20470;-85
2023/11/17 09:01:07;;;;;;;36.67;21.27;;;;;;;;;;6101495;23;20907;-84
2023/11/17 09:03:42;;;;;;;40.43;22.37;;;;;;;;;;6099025;23;20444;-85
2023/11/17 09:06:18;;;;;;;34.87;21.20;;;;;;;;;;6099806;23;20996;-86
2023/11/17 09:08:51;;;;;;;36.93;18.70;;;;;;;;;;6132936;23;20434;-86
2023/11/17 09:11:43;;;;;;;41.10;21.30;;;;;;;;;;6122072;23;20422;-85
2023/11/17 09:14:19;;;;;;;40.63;21.60;;;;;;;;;;6113498;23;20443;-86
2023/11/17 09:17:07;;;;;;;;;;;;;;;;;;;;;
2023/11/17 09:20:04;;;;;;;42.97;21.27;;;;;;;;;;6201544;23;20465;-86
2023/11/17 09:22:37;;;;;;;43.30;21.50;;;;;;;;;;6217559;23;20504;-85
2023/11/17 09:25:32;;;;;;;38.67;21.83;;;;;;;;;;6217300;23;20482;-86
2023/11/17 09:28:16;;;;;;;37.60;21.83;;;;;;;;;;6175164;23;20892;-85
2023/11/17 09:36:57;;;;;;;38.70;21.87;;;;;;;;;;6206518;23;20992;-84
2023/11/17 09:39:40;;;;;;;37.00;19.40;;;;;;;;;;6227675;23;20428;-85
2023/11/17 09:42:19;;;;;;;38.43;21.60;;;;;;;;;;6216191;23;20423;-85
2023/11/17 09:44:47;;;;;;;40.37;21.20;;;;;;;;;;6228962;23;20413;-85
2023/11/17 09:50:32;;;;;;;36.77;21.80;;;;;;;;;;6207998;23;20397;-83
2023/11/17 09:53:14;;;;;;;39.33;20.13;;;;;;;;;;6211675;23;20486;-86
2023/11/17 09:55:54;;;;;;;39.10;22.93;;;;;;;;;;6211429;23;20515;-85
2023/11/17 09:58:47;;;;;;;35.10;19.30;;;;;;;;;;6211818;23;20421;-85
2023/11/17 10:01:33;;;;;;;33.47;18.70;;;;;;;;;;6214572;23;20424;-87
2023/11/17 10:04:11;;;;;;;35.33;19.03;;;;;;;;;;6217824;23;20397;-86
2023/11/17 10:06:53;;;;;;;35.20;20.27;;;;;;;;;;6215805;23;20576;-86
2023/11/17 10:09:48;;;;;;;;;;;;;;;;;;;;;
2023/11/17 10:12:34;;;;;;;33.50;20.43;;;;;;;;;;6220007;23;20413;-85
2023/11/17 10:15:29;;;;;;;34.67;20.53;;;;;;;;;;6233299;23;20508;-86
2023/11/17 10:18:20;;;;;;;40.70;21.30;;;;;;;;;;6224548;23;20432;-86
2023/11/17 10:20:57;;;;;;;37.40;19.37;;;;;;;;;;6225222;23;20388;-85
2023/11/17 10:23:28;;;;;;;39.50;20.17;;;;;;;;;;6220859;23;20449;-87
2023/11/17 10:25:56;;;;;;;37.97;21.00;;;;;;;;;;6219211;23;20420;-89
2023/11/17 10:28:36;;;;;;;39.40;21.23;;;;;;;;;;6218715;23;20782;-87
2023/11/17 10:31:23;;;;;;;40.43;21.60;;;;;;;;;;6216284;23;20882;-88
2023/11/17 10:33:57;;;;;;;35.30;20.43;;;;;;;;;;6215718;23;20396;-87
2023/11/17 10:36:30;;;;;;;33.53;19.63;;;;;;;;;;6216471;23;20445;-87
2023/11/17 10:39:12;;;;;;;35.63;19.97;;;;;;;;;;6213809;23;20436;-86
2023/11/17 10:41:47;;;;;;;37.57;21.60;;;;;;;;;;6216597;23;21246;-85
2023/11/17 10:44:41;;;;;;;41.17;21.57;;;;;;;;;;6219001;23;20725;-85
2023/11/17 10:47:21;;;;;;;36.13;20.20;;;;;;;;;;6215033;23;20449;-86
2023/11/17 10:50:12;;;;;;;34.03;19.47;;;;;;;;;;6220163;23;20413;-88
2023/11/17 10:52:43;;;;;;;39.80;20.67;;;;;;;;;;6229432;23;20662;-88
2023/11/17 10:55:21;;;;;;;40.60;22.90;;;;;;;;;;6231423;23;20437;-87
2023/11/17 10:58:15;;;;;;;40.40;22.00;;;;;;;;;;6225545;23;20413;-86
2023/11/17 11:00:57;;;;;;;39.83;21.80;;;;;;;;;;6215242;23;20467;-86
2023/11/17 11:03:41;;;;;;;41.90;21.53;;;;;;;;;;6213259;23;20475;-84
2023/11/17 11:06:14;;;;;;;36.10;20.40;;;;;;;;;;6212576;23;20482;-84
2023/11/17 11:09:30;;;;;;;38.07;21.43;;;;;;;;;;6209006;23;20441;-84
2023/11/17 11:12:23;;;;;;;32.30;18.77;;;;;;;;;;6181328;23;20409;-84
2023/11/17 11:14:53;;;;;;;35.50;20.47;;;;;;;;;;6208581;23;20879;-86
2023/11/17 11:17:51;;;;;;;44.03;20.53;;;;;;;;;;6209716;23;20436;-85
2023/11/17 11:24:04;;;;;;;41.10;21.40;;;;;;;;;;6217922;23;20444;-86
2023/11/17 11:27:09;;;;;;;37.30;22.73;;;;;;;;;;6221188;23;20733;-86
2023/11/17 11:29:49;;;;;;;38.37;22.27;;;;;;;;;;6211849;23;20404;-87
2023/11/17 11:32:32;;;;;;;34.20;19.80;;;;;;;;;;6212354;23;20524;-85
2023/11/17 11:35:42;;;;;;;38.73;20.83;;;;;;;;;;6212442;23;20476;-85
2023/11/17 11:38:29;;;;;;;35.87;21.67;;;;;;;;;;6186773;23;20409;-84
2023/11/17 11:41:24;;;;;;;37.40;20.77;;;;;;;;;;6232531;23;20412;-84
2023/11/17 11:44:12;;;;;;;32.43;20.30;;;;;;;;;;6234489;23;20389;-85
2023/11/17 11:47:03;;;;;;;32.87;17.77;;;;;;;;;;6228639;23;20432;-86
2023/11/17 11:49:49;;;;;;;30.13;18.60;;;;;;;;;;6197999;23;20393;-85
2023/11/17 11:53:02;;;;;;;33.30;18.23;;;;;;;;;;6219944;23;20420;-85
2023/11/17 11:56:19;;;;;;;32.60;18.90;;;;;;;;;;6192285;23;20451;-88
2023/11/17 11:59:05;;;;;;;33.23;19.03;;;;;;;;;;6225777;23;20427;-86
2023/11/17 12:02:06;;;;;;;32.43;17.97;;;;;;;;;;6231313;23;20464;-85
2023/11/17 12:05:09;;;;;;;;;;;;;;;;;;;;;
2023/11/17 12:07:59;;;;;;;32.53;18.20;;;;;;;;;;6221667;23;20496;-86
2023/11/17 12:10:54;;;;;;;27.37;18.10;;;;;;;;;;6219479;23;20407;-86
2023/11/17 12:13:56;;;;;;;34.13;19.40;;;;;;;;;;6221282;23;20404;-87
2023/11/17 12:19:16;;;;;;;32.77;18.37;;;;;;;;;;6217307;23;20428;-86
2023/11/17 12:22:33;;;;;;;28.83;18.10;;;;;;;;;;6239722;23;20409;-86
2023/11/17 12:25:38;;;;;;;31.93;19.47;;;;;;;;;;6222703;23;20829;-85
2023/11/17 12:28:43;;;;;;;;;;;;;;;;;;;;;
2023/11/17 12:34:52;;;;;;;24.07;14.87;;;;;;;;;;6122233;23;20399;-86
2023/11/17 12:37:54;;;;;;;26.87;16.00;;;;;;;;;;6123605;23;20431;-89
2023/11/17 12:41:06;;;;;;;24.77;16.03;;;;;;;;;;6188182;23;20420;-85
2023/11/17 12:44:03;;;;;;;26.50;16.63;;;;;;;;;;6203687;23;20400;-88
2023/11/17 12:46:38;;;;;;;24.33;14.50;;;;;;;;;;6195802;23;20445;-88
2023/11/17 12:49:16;;;;;;;25.80;16.60;;;;;;;;;;6202353;23;20394;-86
2023/11/17 12:52:12;;;;;;;26.10;16.07;;;;;;;;;;6224060;23;20421;-87
2023/11/17 12:55:10;;;;;;;26.50;15.53;;;;;;;;;;6195185;23;20422;-86
2023/11/17 13:04:28;;;;;;;23.60;15.20;;;;;;;;;;6204113;23;20489;-87
2023/11/17 13:10:05;;;;;;;23.67;14.33;;;;;;;;;;6201394;23;20789;-87
2023/11/17 13:15:46;;;;;;;25.90;14.20;;;;;;;;;;6221315;23;20476;-86
2023/11/17 13:18:17;;;;;;;23.30;14.00;;;;;;;;;;6251024;22;20495;-86
2023/11/17 13:20:54;;;;;;;21.47;14.23;;;;;;;;;;6220994;23;20389;-85
2023/11/17 13:26:46;;;;;;;20.17;13.53;;;;;;;;;;6222986;23;20405;-87
2023/11/17 13:29:32;;;;;;;21.13;13.80;;;;;;;;;;6207812;23;20943;-88
2023/11/17 13:32:38;;;;;;;23.70;13.50;;;;;;;;;;6223257;23;20372;-87
2023/11/17 13:35:21;;;;;;;19.67;12.90;;;;;;;;;;6133027;23;20403;-85
2023/11/17 13:38:15;;;;;;;21.30;14.10;;;;;;;;;;6131189;23;20438;-87
2023/11/17 13:41:03;;;;;;;17.33;11.97;;;;;;;;;;6122911;23;20394;-86
2023/11/17 13:47:00;;;;;;;17.27;12.33;;;;;;;;;;6212611;23;20428;-88
2023/11/17 13:49:55;;;;;;;21.80;12.90;;;;;;;;;;6137249;23;20717;-84
2023/11/17 13:52:49;;;;;;;19.73;12.47;;;;;;;;;;6208372;23;20452;-85
2023/11/17 13:55:46;;;;;;;18.10;11.97;;;;;;;;;;6229072;23;20451;-87
2023/11/17 14:02:08;;;;;;;20.80;12.70;;;;;;;;;;6166780;23;20413;-87
2023/11/17 14:07:49;;;;;;;17.23;13.23;;;;;;;;;;6207070;23;20413;-86
2023/11/17 14:10:38;;;;;;;17.33;10.33;;;;;;;;;;6233940;23;20419;-86
2023/11/17 14:13:25;;;;;;;23.43;12.77;;;;;;;;;;6214357;23;20393;-87
2023/11/17 14:16:12;;;;;;;17.87;11.77;;;;;;;;;;6222387;23;20440;-87
2023/11/17 14:18:56;;;;;;;18.03;11.63;;;;;;;;;;6225948;23;20472;-86
2023/11/17 14:21:51;;;;;;;16.20;11.60;;;;;;;;;;6217350;23;20424;-87
2023/11/17 14:24:48;;;;;;;16.87;11.10;;;;;;;;;;6217988;23;20433;-87
2023/11/17 14:27:46;;;;;;;20.00;11.50;;;;;;;;;;6218845;23;21133;-84
2023/11/17 14:30:53;;;;;;;18.50;11.23;;;;;;;;;;6211279;23;20458;-86
2023/11/17 14:33:35;;;;;;;18.97;12.17;;;;;;;;;;6216465;23;20556;-85
2023/11/17 14:36:37;;;;;;;18.00;12.63;;;;;;;;;;6226591;23;20520;-87
2023/11/17 14:39:33;;;;;;;19.37;13.63;;;;;;;;;;6231120;23;20462;-87
2023/11/17 14:46:05;;;;;;;19.60;12.77;;;;;;;;;;6232682;23;20433;-86
2023/11/17 14:48:54;;;;;;;20.10;15.60;;;;;;;;;;6219984;23;20417;-87
2023/11/17 14:51:48;;;;;;;24.07;13.73;;;;;;;;;;6224213;23;20431;-87
2023/11/17 14:54:51;;;;;;;26.40;14.90;;;;;;;;;;6161250;23;20405;-84
2023/11/17 15:00:52;;;;;;;22.50;14.83;;;;;;;;;;6198829;23;20408;-86
2023/11/17 15:04:29;;;;;;;21.17;13.80;;;;;;;;;;6182429;23;20414;-85
2023/11/17 15:07:24;;;;;;;20.50;14.00;;;;;;;;;;6176042;23;21080;-87
2023/11/17 15:10:18;;;;;;;22.23;13.57;;;;;;;;;;6173484;23;20412;-86
2023/11/17 15:13:10;;;;;;;22.30;13.83;;;;;;;;;;6164409;23;20397;-86
2023/11/17 15:16:28;;;;;;;21.93;14.40;;;;;;;;;;6179424;23;20409;-87
2023/11/17 15:19:26;;;;;;;20.00;12.87;;;;;;;;;;6179682;23;20457;-86
2023/11/17 15:22:25;;;;;;;22.70;13.90;;;;;;;;;;6184845;23;20413;-86
2023/11/17 15:25:09;;;;;;;22.40;14.30;;;;;;;;;;6202088;23;20444;-88
2023/11/17 15:27:48;;;;;;;25.43;14.30;;;;;;;;;;6171076;23;20469;-84
2023/11/17 15:30:32;;;;;;;24.83;14.80;;;;;;;;;;6164321;23;20414;-85
2023/11/17 15:33:13;;;;;;;26.67;16.43;;;;;;;;;;6174282;23;20429;-86
2023/11/17 15:35:59;;;;;;;25.00;15.23;;;;;;;;;;6165983;23;20506;-86
2023/11/17 15:39:00;;;;;;;30.10;17.33;;;;;;;;;;6208374;23;20401;-86
2023/11/17 15:41:59;;;;;;;28.17;16.93;;;;;;;;;;6206149;23;20397;-85
2023/11/17 15:45:11;;;;;;;27.00;16.83;;;;;;;;;;6214151;23;20409;-84
2023/11/17 15:48:11;;;;;;;;;;;;;;;;;;;;;
2023/11/17 15:50:56;;;;;;;27.57;18.17;;;;;;;;;;6222532;23;20412;-86
2023/11/17 15:53:34;;;;;;;29.57;17.60;;;;;;;;;;6213559;23;20412;-87
2023/11/17 15:56:16;;;;;;;29.40;16.83;;;;;;;;;;6213536;23;20445;-86
2023/11/17 15:59:04;;;;;;;29.93;17.50;;;;;;;;;;6214612;23;20408;-86
2023/11/17 16:01:45;;;;;;;29.07;18.00;;;;;;;;;;6212421;23;20412;-86
2023/11/17 16:04:25;;;;;;;28.43;16.87;;;;;;;;;;6212897;23;20439;-87
2023/11/17 16:07:02;;;;;;;30.37;17.20;;;;;;;;;;6210733;23;20441;-86
2023/11/17 16:09:57;;;;;;;27.13;16.77;;;;;;;;;;6209796;23;20398;-85
2023/11/17 16:12:50;;;;;;;32.03;18.47;;;;;;;;;;6197877;23;20491;-87
2023/11/17 16:19:34;;;;;;;30.17;17.37;;;;;;;;;;6221383;23;20440;-86
2023/11/17 16:22:13;;;;;;;28.40;17.23;;;;;;;;;;6210814;23;20416;-83
2023/11/17 16:24:57;;;;;;;37.40;16.83;;;;;;;;;;6209319;23;20432;-88
2023/11/17 16:28:10;;;;;;;26.77;15.30;;;;;;;;;;6209096;23;20408;-86
2023/11/17 16:30:53;;;;;;;28.33;16.93;;;;;;;;;;6216801;23;20408;-86
2023/11/17 16:33:47;;;;;;;29.00;16.20;;;;;;;;;;6211119;23;20851;-86
2023/11/17 16:39:37;;;;;;;27.07;15.80;;;;;;;;;;6206040;23;20459;-85
2023/11/17 16:42:24;;;;;;;25.17;15.10;;;;;;;;;;6208629;23;20469;-86
2023/11/17 16:45:12;;;;;;;24.47;16.33;;;;;;;;;;6210603;23;20403;-85
2023/11/17 16:48:27;;;;;;;25.00;13.80;;;;;;;;;;6183873;23;20433;-88
2023/11/17 16:51:31;;;;;;;25.13;15.17;;;;;;;;;;6208973;23;20487;-84
2023/11/17 16:54:31;;;;;;;24.00;14.80;;;;;;;;;;6203113;23;20415;-87
2023/11/17 16:57:29;;;;;;;26.80;15.10;;;;;;;;;;6213179;23;21098;-86
2023/11/17 17:00:29;;;;;;;21.10;14.83;;;;;;;;;;6215659;23;20397;-86
2023/11/17 17:03:05;;;;;;;23.17;14.17;;;;;;;;;;6213632;23;20409;-87
2023/11/17 17:05:49;;;;;;;25.43;14.20;;;;;;;;;;6214916;23;20423;-86
2023/11/17 17:11:38;;;;;;;17.90;12.07;;;;;;;;;;6178874;23;20420;-84
2023/11/17 17:14:15;;;;;;;26.60;16.13;;;;;;;;;;6213829;23;20854;-86
2023/11/17 17:16:57;;;;;;;21.67;14.20;;;;;;;;;;6208528;23;20805;-85
2023/11/17 17:19:41;;;;;;;23.30;15.30;;;;;;;;;;6182341;23;20417;-87
2023/11/17 17:23:11;;;;;;;25.70;14.77;;;;;;;;;;6156102;23;20476;-84
2023/11/17 17:26:17;;;;;;;21.60;13.80;;;;;;;;;;6225490;23;20453;-85
2023/11/17 17:29:11;;;;;;;20.73;13.27;;;;;;;;;;6221455;23;20420;-86
2023/11/17 17:32:18;;;;;;;25.87;14.90;;;;;;;;;;6211153;23;20400;-87
2023/11/17 17:35:07;;;;;;;27.97;14.47;;;;;;;;;;6209574;23;20784;-86
2023/11/17 17:43:07;;;;;;;24.97;16.83;;;;;;;;;;6215643;23;20500;-87
2023/11/17 17:45:43;;;;;;;26.70;15.00;;;;;;;;;;6215521;23;20413;-86
2023/11/17 17:52:16;;;;;;;34.60;20.30;;;;;;;;;;6176756;23;20418;-85
2023/11/17 17:55:09;;;;;;;26.00;16.03;;;;;;;;;;6160655;23;20410;-87
2023/11/17 17:58:03;;;;;;;27.53;15.80;;;;;;;;;;6161345;23;20525;-86
2023/11/17 18:00:51;;;;;;;24.67;14.80;;;;;;;;;;6158921;23;21017;-85